KAID

Anderson Municipal-Darlington Field Airport

Anderson, Indiana, USA
METAR KAID 180215Z AUTO 00000KT 10SM SCT100 22/21 A3000 RMK AO2 T02200207
Observed Flight Rules
Aug-18 @ 02:15 UTC (15 minutes ago) Visual Flight Rules
Visibility Clouds
10 miles
  • Scattered at 10,000' AGL
Temperatures Readings
Current 22°C / 72°F
Dewpoint 21°C / 70°F
Humidity 94%
Altimeter 30" Hg
Pressure 1016 hPa
Elevation 280
METAR KAID 180215Z AUTO 00000KT 10SM SCT100 22/21 A3000 RMK AO2 T02200207
Observed Flight Rules
Aug-18 @ 02:15 UTC
(15 minutes ago)
VFR
Clouds
  • Scattered at 10,000' AGL
Temperature Dewpoint
22°C / 72°F 21°C / 70°F
Humidity Altimeter Pressure
94% 30" Hg 1016 hPa